createdAt,value
2018-01-27T00:00:07.901Z,42.17
2018-01-27T00:02:38.019Z,52.67
2018-01-27T00:05:06.952Z,51.07
2018-01-27T00:07:36.665Z,50.57
2018-01-27T00:10:06.473Z,43.67
2018-01-27T00:12:35.382Z,44.17
2018-01-27T00:15:04.715Z,39.83
2018-01-27T00:17:33.685Z,46.10
2018-01-27T00:20:02.671Z,45.23
2018-01-27T00:22:43.541Z,46.20
2018-01-27T00:25:12.520Z,48.30
2018-01-27T00:27:41.496Z,48.83
2018-01-27T00:30:10.468Z,50.70
2018-01-27T00:32:39.498Z,49.97
2018-01-27T00:35:08.457Z,47.17
2018-01-27T00:37:37.835Z,46.30
2018-01-27T00:40:06.774Z,47.93
2018-01-27T00:42:35.724Z,50.83
2018-01-27T00:45:05.469Z,52.60
2018-01-27T00:47:34.458Z,48.83
2018-01-27T00:50:03.387Z,51.50
2018-01-27T00:52:32.349Z,50.57
2018-01-27T00:55:01.312Z,39.43
2018-01-27T00:57:30.265Z,37.80
2018-01-27T00:59:59.253Z,44.33
2018-01-27T01:02:28.236Z,37.80
2018-01-27T01:04:58.053Z,39.43
2018-01-27T01:07:27.053Z,45.20
2018-01-27T01:09:56.393Z,43.70
2018-01-27T01:12:25.373Z,40.47
2018-01-27T01:14:54.318Z,39.10
2018-01-27T01:17:24.023Z,40.23
2018-01-27T01:19:53.756Z,41.87
2018-01-27T01:22:22.700Z,39.93
2018-01-27T01:24:51.687Z,40.77
2018-01-27T01:27:21.075Z,34.17
2018-01-27T01:29:50.044Z,40.47
2018-01-27T01:32:19.041Z,37.73
2018-01-27T01:34:48.098Z,36.63
2018-01-27T01:37:17.180Z,39.40
2018-01-27T01:39:46.165Z,34.17
2018-01-27T01:42:20.912Z,33.03
2018-01-27T01:44:50.273Z,28.50
2018-01-27T01:47:19.242Z,33.30
2018-01-27T01:49:48.176Z,29.37
2018-01-27T01:52:17.187Z,37.87
2018-01-27T01:54:46.115Z,32.37
2018-01-27T01:57:15.100Z,36.47
2018-01-27T01:59:44.076Z,29.83
2018-01-27T02:02:13.430Z,34.93
2018-01-27T02:04:42.412Z,30.47
2018-01-27T02:07:12.269Z,38.10
2018-01-27T02:09:41.204Z,33.40
2018-01-27T02:12:11.196Z,28.80
2018-01-27T02:14:42.518Z,37.07
2018-01-27T02:17:12.241Z,33.67
2018-01-27T02:19:41.974Z,31.27
2018-01-27T02:22:10.934Z,33.37
2018-01-27T02:24:40.755Z,31.07
2018-01-27T02:27:10.443Z,32.83
2018-01-27T02:29:39.791Z,31.27
2018-01-27T02:32:08.791Z,27.37
2018-01-27T02:34:37.761Z,34.67
2018-01-27T02:37:07.144Z,35.50
2018-01-27T02:39:36.881Z,34.40
2018-01-27T02:42:05.828Z,35.87
2018-01-27T02:44:34.892Z,36.43
2018-01-27T02:47:03.837Z,41.33
2018-01-27T02:49:33.555Z,34.90
2018-01-27T02:52:03.375Z,38.13
2018-01-27T02:57:08.303Z,44.07
2018-01-27T02:59:38.044Z,39.60
2018-01-27T03:02:08.636Z,49.43
2018-01-27T03:04:37.594Z,42.60
2018-01-27T03:07:06.534Z,45.03
2018-01-27T03:09:35.647Z,44.23
2018-01-27T03:12:04.791Z,42.03
2018-01-27T03:14:33.758Z,36.73
2018-01-27T03:17:02.703Z,48.93
2018-01-27T03:19:32.400Z,55.97
2018-01-27T03:22:02.214Z,59.77
2018-01-27T03:24:31.153Z,53.97
2018-01-27T03:27:00.132Z,44.90
2018-01-27T03:29:30.202Z,56.23
2018-01-27T03:31:59.616Z,50.40
2018-01-27T03:34:28.566Z,54.23
2018-01-27T03:36:58.299Z,63.80
2018-01-27T03:39:27.312Z,47.40
2018-01-27T03:41:57.035Z,58.63
2018-01-27T03:44:26.016Z,56.73
2018-01-27T03:46:55.360Z,47.40
2018-01-27T03:49:24.326Z,58.13
2018-01-27T03:51:53.308Z,47.67
2018-01-27T03:54:22.958Z,71.87
2018-01-27T03:56:52.015Z,45.03
2018-01-27T03:59:21.690Z,44.97
2018-01-27T04:01:50.663Z,50.83
2018-01-27T04:04:19.945Z,49.33
2018-01-27T04:06:49.191Z,43.73
2018-01-27T04:09:18.217Z,41.77
2018-01-27T04:11:47.240Z,47.33
2018-01-27T04:14:16.338Z,46.50
2018-01-27T04:16:45.223Z,56.07
2018-01-27T04:19:14.894Z,51.37
2018-01-27T04:21:55.039Z,48.17
2018-01-27T04:24:24.110Z,46.73
2018-01-27T04:26:54.941Z,57.43
2018-01-27T04:33:04.006Z,64.07
2018-01-27T04:35:33.002Z,52.77
2018-01-27T04:38:03.176Z,59.90
2018-01-27T04:40:32.116Z,63.07
2018-01-27T04:43:01.855Z,65.77
2018-01-27T04:45:30.794Z,64.30
2018-01-27T04:47:59.769Z,58.70
2018-01-27T04:50:29.372Z,60.90
2018-01-27T04:52:58.414Z,54.87
2018-01-27T04:55:27.333Z,72.27
2018-01-27T04:57:56.316Z,54.40
2018-01-27T05:00:25.331Z,58.97
2018-01-27T05:02:54.284Z,54.93
2018-01-27T05:05:23.244Z,57.87
2018-01-27T05:07:52.218Z,64.90
2018-01-27T05:10:22.785Z,55.47
2018-01-27T05:12:51.751Z,49.83
2018-01-27T05:15:22.046Z,54.60
2018-01-27T05:17:51.044Z,65.93
2018-01-27T05:20:20.406Z,63.10
2018-01-27T05:22:49.486Z,53.40
2018-01-27T05:25:18.425Z,51.70
2018-01-27T05:27:47.424Z,54.43
2018-01-27T05:30:16.428Z,54.67
2018-01-27T05:32:45.373Z,53.90
2018-01-27T05:35:14.386Z,56.97
2018-01-27T05:37:43.341Z,67.27
2018-01-27T05:40:13.096Z,61.53
2018-01-27T05:42:42.112Z,62.53
2018-01-27T05:45:11.087Z,66.80
2018-01-27T05:47:40.065Z,72.23
2018-01-27T05:50:09.043Z,69.90
2018-01-27T05:52:38.746Z,55.17
2018-01-27T05:55:07.732Z,67.97
2018-01-27T05:57:37.089Z,62.23
2018-01-27T06:00:06.392Z,63.63
2018-01-27T06:02:36.172Z,62.33
2018-01-27T06:05:05.147Z,58.00
2018-01-27T06:07:34.880Z,55.73
2018-01-27T06:10:03.811Z,60.77
2018-01-27T06:12:32.795Z,78.17
2018-01-27T06:15:01.742Z,60.43
2018-01-27T06:17:30.696Z,54.17
2018-01-27T06:20:00.444Z,55.97
2018-01-27T06:22:29.396Z,68.50
2018-01-27T06:24:58.750Z,70.03
2018-01-27T06:27:27.735Z,70.97
2018-01-27T06:29:56.673Z,66.63
2018-01-27T06:32:26.435Z,73.70
2018-01-27T06:34:55.511Z,68.63
2018-01-27T06:37:25.237Z,63.97
2018-01-27T06:39:54.276Z,66.00
2018-01-27T06:42:23.397Z,70.67
2018-01-27T06:44:53.108Z,64.77
2018-01-27T06:47:22.859Z,59.40
2018-01-27T06:49:51.811Z,54.23
2018-01-27T06:52:20.794Z,73.03
2018-01-27T06:54:49.786Z,72.90
2018-01-27T06:57:18.955Z,57.73
2018-01-27T06:59:48.693Z,70.23
2018-01-27T07:02:18.111Z,73.20
2018-01-27T07:04:47.937Z,63.67
2018-01-27T07:07:16.902Z,53.97
2018-01-27T07:09:46.934Z,63.17
2018-01-27T07:12:15.951Z,71.47
2018-01-27T07:14:44.952Z,72.90
2018-01-27T07:17:13.956Z,64.73
2018-01-27T07:19:42.927Z,62.80
2018-01-27T07:22:12.605Z,66.63
2018-01-27T07:24:42.405Z,56.17
2018-01-27T07:27:12.084Z,71.00
2018-01-27T07:29:42.610Z,58.33
2018-01-27T07:32:11.759Z,62.13
2018-01-27T07:34:40.934Z,56.20
2018-01-27T07:37:09.900Z,60.10
2018-01-27T07:39:38.886Z,62.13
2018-01-27T07:42:07.843Z,65.57
2018-01-27T07:44:37.603Z,79.37
2018-01-27T07:47:06.574Z,92.23
2018-01-27T07:49:35.708Z,109.93
2018-01-27T07:52:05.040Z,145.93
2018-01-27T07:54:34.030Z,148.23
2018-01-27T07:57:03.003Z,130.17
2018-01-27T07:59:32.013Z,132.57
2018-01-27T08:02:01.785Z,82.40
2018-01-27T08:04:30.808Z,67.67
2018-01-27T08:07:00.795Z,79.47
2018-01-27T08:09:29.769Z,93.70
2018-01-27T08:12:00.259Z,65.13
2018-01-27T08:14:29.300Z,77.97
2018-01-27T08:16:58.318Z,85.30
2018-01-27T08:19:27.785Z,72.37
2018-01-27T08:21:56.760Z,79.67
2018-01-27T08:24:25.717Z,60.40
2018-01-27T08:26:54.691Z,76.23
2018-01-27T08:29:24.429Z,67.00
2018-01-27T08:31:54.175Z,68.03
2018-01-27T08:34:23.932Z,76.97
2018-01-27T08:36:53.694Z,70.83
2018-01-27T08:39:23.057Z,72.70
2018-01-27T08:41:51.996Z,65.70
2018-01-27T08:44:21.044Z,59.17
2018-01-27T08:46:50.763Z,75.80
2018-01-27T08:49:19.786Z,66.37
2018-01-27T08:51:49.216Z,72.10
2018-01-27T08:54:18.964Z,62.77
2018-01-27T08:56:48.027Z,73.23
2018-01-27T08:59:16.954Z,70.13
2018-01-27T09:01:46.116Z,62.57
2018-01-27T09:04:15.917Z,65.57
2018-01-27T09:06:44.924Z,61.43
2018-01-27T09:09:14.666Z,69.07
2018-01-27T09:11:43.681Z,61.47
2018-01-27T09:14:13.101Z,66.23
2018-01-27T09:16:42.176Z,62.60
2018-01-27T09:19:11.515Z,59.13
2018-01-27T09:21:41.242Z,64.23
2018-01-27T09:24:10.670Z,55.07
2018-01-27T09:26:39.633Z,55.30
2018-01-27T09:29:09.641Z,53.20
2018-01-27T09:31:39.353Z,49.23
2018-01-27T09:34:09.120Z,50.23
2018-01-27T09:36:38.066Z,51.37
2018-01-27T09:39:07.039Z,58.60
2018-01-27T09:41:36.169Z,51.33
2018-01-27T09:44:05.234Z,47.73
2018-01-27T09:46:34.978Z,52.10
2018-01-27T09:49:03.982Z,48.47
2018-01-27T09:51:32.981Z,50.77
2018-01-27T09:54:01.945Z,40.00
2018-01-27T09:56:30.908Z,47.60
2018-01-27T09:59:00.280Z,42.73
2018-01-27T10:01:29.227Z,43.40
2018-01-27T10:03:58.310Z,38.53
2018-01-27T10:06:27.668Z,46.07
2018-01-27T10:08:56.631Z,37.57
2018-01-27T10:11:25.704Z,41.63
2018-01-27T10:13:54.677Z,38.60
2018-01-27T10:16:24.372Z,31.23
2018-01-27T10:18:53.519Z,27.70
2018-01-27T10:21:22.459Z,29.83
2018-01-27T10:23:51.413Z,34.43
2018-01-27T10:26:20.400Z,27.90
2018-01-27T10:28:49.356Z,24.30
2018-01-27T10:31:19.113Z,28.63
2018-01-27T10:33:48.075Z,27.40
2018-01-27T10:36:17.021Z,25.40
2018-01-27T10:38:45.996Z,22.47
2018-01-27T10:41:15.382Z,26.30
2018-01-27T10:43:44.738Z,25.70
2018-01-27T10:46:14.501Z,26.15
2018-01-27T10:48:43.476Z,24.07
2018-01-27T10:51:12.438Z,19.97
2018-01-27T10:53:41.429Z,22.17
2018-01-27T10:56:11.230Z,22.60
2018-01-27T10:58:41.045Z,23.00
2018-01-27T11:01:10.022Z,23.47
2018-01-27T11:03:38.969Z,19.90
2018-01-27T11:06:07.951Z,23.43
2018-01-27T11:08:36.910Z,23.03
2018-01-27T11:11:06.645Z,21.37
2018-01-27T11:13:35.611Z,20.10
2018-01-27T11:16:04.957Z,20.77
2018-01-27T11:18:33.928Z,20.70
2018-01-27T11:21:02.933Z,17.90
2018-01-27T11:23:31.861Z,24.23
2018-01-27T11:26:00.848Z,20.70
2018-01-27T11:28:29.787Z,19.80
2018-01-27T11:30:58.744Z,18.50
2018-01-27T11:33:27.717Z,21.70
2018-01-27T11:35:56.698Z,22.13
2018-01-27T11:38:25.675Z,19.30
2018-01-27T11:40:54.627Z,20.70
2018-01-27T11:43:24.376Z,25.00
2018-01-27T11:45:53.350Z,22.30
2018-01-27T11:48:22.286Z,22.63
2018-01-27T11:50:51.262Z,18.53
2018-01-27T11:53:20.228Z,20.80
2018-01-27T11:55:49.173Z,17.73
2018-01-27T11:58:18.561Z,14.27
2018-01-27T12:00:47.561Z,19.43
2018-01-27T12:03:16.512Z,14.97
2018-01-27T12:05:45.651Z,14.67
2018-01-27T12:08:14.773Z,23.10
2018-01-27T12:10:44.497Z,17.90
2018-01-27T12:13:13.457Z,15.83
2018-01-27T12:15:42.478Z,15.87
2018-01-27T12:18:12.216Z,14.87
2018-01-27T12:20:41.272Z,15.70
2018-01-27T12:23:11.021Z,15.97
2018-01-27T12:25:40.319Z,18.83
2018-01-27T12:28:10.650Z,15.23
2018-01-27T12:30:40.041Z,17.03
2018-01-27T12:33:09.916Z,16.73
2018-01-27T12:35:39.629Z,15.60
2018-01-27T12:38:09.379Z,15.33
2018-01-27T12:40:38.344Z,17.27
2018-01-27T12:43:07.345Z,15.50
2018-01-27T12:45:36.316Z,15.07
2018-01-27T12:48:06.048Z,16.30
2018-01-27T12:50:34.990Z,17.30
2018-01-27T12:53:03.972Z,17.37
2018-01-27T12:55:33.235Z,17.10
2018-01-27T12:58:03.393Z,18.30
2018-01-27T13:00:32.341Z,16.53
2018-01-27T13:03:01.304Z,16.13
2018-01-27T13:05:30.814Z,16.60
2018-01-27T13:07:59.778Z,15.37
2018-01-27T13:10:29.494Z,15.80
2018-01-27T13:12:58.480Z,16.03
2018-01-27T13:15:28.185Z,13.50
2018-01-27T13:17:57.155Z,14.37
2018-01-27T13:20:27.019Z,13.17
2018-01-27T13:22:55.990Z,15.80
2018-01-27T13:25:25.733Z,14.60
2018-01-27T13:27:55.473Z,15.47
2018-01-27T13:30:25.189Z,14.00
2018-01-27T13:32:54.188Z,15.13
2018-01-27T13:35:23.142Z,12.13
2018-01-27T13:37:52.557Z,12.40
2018-01-27T13:40:22.350Z,13.10
2018-01-27T13:42:52.064Z,9.03
2018-01-27T13:45:22.561Z,10.93
2018-01-27T13:47:52.263Z,10.07
2018-01-27T13:50:25.297Z,12.17
2018-01-27T13:52:54.328Z,12.87
2018-01-27T13:55:23.311Z,12.67
2018-01-27T13:57:52.314Z,10.53
2018-01-27T14:00:21.668Z,15.43
2018-01-27T14:02:50.656Z,10.83
2018-01-27T14:05:20.344Z,10.70
2018-01-27T14:07:49.288Z,13.10
2018-01-27T14:10:19.421Z,12.03
2018-01-27T14:12:48.362Z,12.10
2018-01-27T14:15:18.111Z,14.57
2018-01-27T14:17:47.352Z,13.73
2018-01-27T14:20:16.350Z,11.30
2018-01-27T14:22:46.086Z,11.17
2018-01-27T14:25:22.917Z,14.63
2018-01-27T14:27:51.914Z,13.10
2018-01-27T14:30:21.780Z,14.80
2018-01-27T14:32:51.503Z,14.40
2018-01-27T14:35:21.600Z,14.27
2018-01-27T14:37:50.949Z,16.97
2018-01-27T14:40:20.788Z,20.27
2018-01-27T14:42:49.795Z,16.37
2018-01-27T14:45:18.741Z,17.23
2018-01-27T14:47:48.276Z,13.53
2018-01-27T14:50:17.202Z,17.03
2018-01-27T14:52:46.263Z,18.30
2018-01-27T14:55:15.585Z,22.30
2018-01-27T14:57:45.821Z,18.23
2018-01-27T15:00:15.542Z,21.40
2018-01-27T15:02:44.532Z,20.80
2018-01-27T15:05:13.476Z,25.23
2018-01-27T15:07:43.287Z,21.53
2018-01-27T15:10:12.652Z,23.67
2018-01-27T15:12:41.587Z,24.10
2018-01-27T15:15:11.320Z,28.10
2018-01-27T15:17:40.345Z,26.00
2018-01-27T15:20:09.351Z,25.93
2018-01-27T15:22:38.350Z,28.00
2018-01-27T15:25:07.316Z,31.60
2018-01-27T15:27:36.336Z,24.47
2018-01-27T15:30:05.282Z,31.83
2018-01-27T15:32:34.369Z,26.20
2018-01-27T15:35:03.346Z,28.37
2018-01-27T15:37:34.250Z,28.03
2018-01-27T15:40:03.612Z,27.63
2018-01-27T15:42:32.589Z,27.27
2018-01-27T15:45:01.580Z,27.53
2018-01-27T15:47:30.552Z,23.10
2018-01-27T15:49:59.539Z,24.57
2018-01-27T15:52:28.496Z,24.63
2018-01-27T15:54:57.839Z,27.90
2018-01-27T15:57:26.836Z,21.60
2018-01-27T15:59:56.576Z,22.10
2018-01-27T16:02:25.601Z,23.47
2018-01-27T16:04:54.546Z,22.50
2018-01-27T16:07:23.526Z,23.90
2018-01-27T16:09:52.524Z,25.53
2018-01-27T16:12:21.698Z,24.10
2018-01-27T16:14:50.666Z,26.80
2018-01-27T16:17:20.355Z,25.53
2018-01-27T16:19:49.507Z,21.83
2018-01-27T16:22:19.233Z,20.33
2018-01-27T16:24:48.689Z,19.07
2018-01-27T16:27:17.682Z,20.20
2018-01-27T16:29:49.258Z,22.70
2018-01-27T16:32:19.034Z,23.13
2018-01-27T16:34:48.076Z,23.40
2018-01-27T16:37:17.058Z,23.30
2018-01-27T16:39:46.424Z,20.93
2018-01-27T16:42:15.404Z,26.77
2018-01-27T16:44:44.539Z,22.47
2018-01-27T16:47:14.359Z,21.37
2018-01-27T16:49:44.103Z,31.90
2018-01-27T16:52:13.150Z,23.60
2018-01-27T16:54:42.526Z,27.17
2018-01-27T16:57:12.248Z,28.33
2018-01-27T16:59:41.264Z,23.27
2018-01-27T17:02:10.766Z,26.00
2018-01-27T17:04:41.464Z,29.47
2018-01-27T17:07:10.782Z,23.40
2018-01-27T17:09:39.832Z,22.33
2018-01-27T17:12:09.569Z,26.87
2018-01-27T17:14:38.521Z,27.10
2018-01-27T17:17:07.512Z,26.07
2018-01-27T17:19:37.244Z,30.30
2018-01-27T17:22:06.246Z,26.07
2018-01-27T17:24:35.278Z,28.27
2018-01-27T17:27:04.271Z,24.80
2018-01-27T17:29:33.496Z,27.50
2018-01-27T17:32:03.199Z,25.00
2018-01-27T17:34:32.143Z,24.17
2018-01-27T17:37:01.150Z,28.93
2018-01-27T17:39:30.122Z,25.87
2018-01-27T17:41:59.151Z,26.67
2018-01-27T17:44:28.134Z,27.27
2018-01-27T17:46:57.605Z,25.90
2018-01-27T17:49:26.549Z,32.60
2018-01-27T17:51:56.348Z,29.50
2018-01-27T17:54:25.331Z,27.10
2018-01-27T17:56:54.744Z,28.60
2018-01-27T17:59:24.559Z,30.50
2018-01-27T18:01:53.965Z,25.47
2018-01-27T18:04:22.946Z,38.43
2018-01-27T18:06:52.362Z,27.27
2018-01-27T18:09:21.752Z,24.30
2018-01-27T18:11:51.116Z,27.07
2018-01-27T18:14:20.223Z,27.13
2018-01-27T18:16:49.175Z,22.30
2018-01-27T18:19:18.334Z,26.90
2018-01-27T18:21:47.296Z,26.50
2018-01-27T18:24:16.328Z,22.93
2018-01-27T18:26:45.375Z,22.07
2018-01-27T18:29:14.300Z,23.90
2018-01-27T18:31:44.116Z,28.33
2018-01-27T18:34:13.081Z,24.20
2018-01-27T18:36:43.611Z,20.00
2018-01-27T18:39:12.606Z,23.80
2018-01-27T18:41:41.588Z,26.00
2018-01-27T18:44:10.587Z,26.10
2018-01-27T18:46:39.584Z,18.90
2018-01-27T18:49:09.018Z,16.60
2018-01-27T18:51:38.778Z,19.03
2018-01-27T18:54:07.857Z,20.70
2018-01-27T18:56:36.842Z,20.43
2018-01-27T18:59:05.857Z,20.63
2018-01-27T19:01:34.896Z,19.60
2018-01-27T19:04:04.726Z,22.47
2018-01-27T19:06:34.660Z,17.50
2018-01-27T19:09:03.607Z,21.07
2018-01-27T19:11:32.992Z,18.00
2018-01-27T19:14:02.072Z,18.33
2018-01-27T19:16:31.848Z,20.80
2018-01-27T19:19:00.825Z,15.37
2018-01-27T19:21:30.179Z,19.10
2018-01-27T19:23:59.994Z,21.90
2018-01-27T19:26:29.015Z,21.57
2018-01-27T19:28:58.725Z,19.70
2018-01-27T19:31:28.496Z,20.00
2018-01-27T19:33:57.503Z,17.60
2018-01-27T19:36:26.888Z,17.00
2018-01-27T19:38:55.869Z,17.27
2018-01-27T19:41:24.856Z,20.03
2018-01-27T19:43:54.646Z,14.23
2018-01-27T19:46:23.591Z,14.43
2018-01-27T19:48:52.679Z,17.00
2018-01-27T19:51:24.991Z,16.80
2018-01-27T19:53:54.381Z,16.37
2018-01-27T19:56:23.721Z,18.80
2018-01-27T19:58:52.774Z,15.27
2018-01-27T20:01:23.455Z,23.90
2018-01-27T20:03:52.467Z,14.70
2018-01-27T20:06:21.480Z,15.13
2018-01-27T20:08:50.946Z,15.90
2018-01-27T20:11:20.778Z,16.40
2018-01-27T20:13:50.735Z,15.77
2018-01-27T20:16:20.543Z,14.87
2018-01-27T20:18:50.405Z,13.23
2018-01-27T20:21:19.534Z,14.33
2018-01-27T20:23:48.551Z,16.20
2018-01-27T20:26:18.314Z,11.53
2018-01-27T20:28:47.356Z,12.20
2018-01-27T20:31:17.166Z,13.90
2018-01-27T20:33:46.892Z,15.23
2018-01-27T20:36:15.903Z,17.83
2018-01-27T20:38:44.885Z,14.90
2018-01-27T20:41:14.893Z,17.30
2018-01-27T20:43:43.903Z,12.60
2018-01-27T20:46:12.888Z,15.13
2018-01-27T20:48:41.900Z,11.47
2018-01-27T20:51:11.310Z,10.80
2018-01-27T20:53:41.037Z,12.80
2018-01-27T20:56:10.008Z,15.20
2018-01-27T20:58:40.903Z,13.47
2018-01-27T21:01:09.856Z,13.27
2018-01-27T21:03:38.866Z,15.77
2018-01-27T21:06:07.840Z,16.07
2018-01-27T21:08:36.866Z,15.60
2018-01-27T21:11:06.248Z,19.83
2018-01-27T21:13:35.273Z,11.07
2018-01-27T21:16:04.317Z,21.50
2018-01-27T21:18:33.367Z,13.13
2018-01-27T21:21:02.499Z,12.90
2018-01-27T21:23:31.469Z,14.70
2018-01-27T21:26:01.646Z,12.07
2018-01-27T21:28:30.639Z,11.27
2018-01-27T21:31:00.406Z,13.60
2018-01-27T21:33:29.450Z,14.80
2018-01-27T21:35:59.268Z,12.70
2018-01-27T21:38:30.342Z,15.73
2018-01-27T21:43:29.929Z,14.53
2018-01-27T21:45:59.785Z,12.90
2018-01-27T21:48:28.864Z,12.90
2018-01-27T21:50:58.614Z,17.50
2018-01-27T21:53:28.135Z,12.07
2018-01-27T21:55:57.933Z,11.27
2018-01-27T21:58:26.980Z,14.17
2018-01-27T22:00:56.731Z,16.20
2018-01-27T22:03:32.976Z,10.80
2018-01-27T22:06:02.469Z,14.90
2018-01-27T22:08:31.662Z,14.00
2018-01-27T22:11:00.672Z,15.10
2018-01-27T22:13:30.674Z,13.40
2018-01-27T22:15:59.746Z,14.07
2018-01-27T22:18:29.106Z,14.40
2018-01-27T22:20:58.519Z,14.17
2018-01-27T22:23:28.583Z,14.70
2018-01-27T22:25:57.641Z,10.20
2018-01-27T22:28:27.109Z,13.00
2018-01-27T22:30:56.599Z,14.00
2018-01-27T22:33:25.687Z,8.90
2018-01-27T22:35:54.656Z,12.80
2018-01-27T22:38:23.810Z,12.80
2018-01-27T22:40:53.016Z,14.03
2018-01-27T22:43:24.334Z,11.30
2018-01-27T22:45:53.419Z,8.83
2018-01-27T22:48:22.867Z,11.47
2018-01-27T22:50:52.587Z,10.00
2018-01-27T22:53:22.305Z,10.43
2018-01-27T22:55:51.344Z,8.50
2018-01-27T22:58:21.813Z,10.27
2018-01-27T23:00:57.115Z,9.20
2018-01-27T23:03:26.072Z,8.30
2018-01-27T23:05:55.791Z,10.53
2018-01-27T23:08:24.794Z,11.33
2018-01-27T23:10:54.926Z,10.37
2018-01-27T23:13:23.946Z,9.37
2018-01-27T23:15:53.867Z,10.37
2018-01-27T23:18:24.309Z,8.00
2018-01-27T23:20:53.320Z,10.40
2018-01-27T23:23:22.279Z,10.17
2018-01-27T23:25:52.082Z,11.30
2018-01-27T23:28:21.485Z,7.83
2018-01-27T23:30:50.436Z,9.50
2018-01-27T23:33:20.163Z,6.40
2018-01-27T23:35:49.192Z,7.93
2018-01-27T23:38:18.962Z,12.90
2018-01-27T23:40:48.441Z,8.60
2018-01-27T23:43:17.402Z,8.00
2018-01-27T23:45:47.508Z,7.97
2018-01-27T23:48:17.283Z,10.17
2018-01-27T23:50:46.320Z,6.83
2018-01-27T23:53:16.033Z,7.27
2018-01-27T23:55:44.998Z,10.07
2018-01-27T23:58:13.939Z,8.40
